sensor_id;sensor_type;location;lat;lon;timestamp;P1;durP1;ratioP1;P2;durP2;ratioP2
52136;SDS011;69622;49.570;10.986;2023-08-07T00:00:44;0.22;;;0.10;;
52136;SDS011;69622;49.570;10.986;2023-08-07T00:03:46;0.68;;;0.32;;
52136;SDS011;69622;49.570;10.986;2023-08-07T00:06:48;0.20;;;0.10;;
52136;SDS011;69622;49.570;10.986;2023-08-07T00:09:50;0.60;;;0.30;;
52136;SDS011;69622;49.570;10.986;2023-08-07T00:12:51;0.63;;;0.40;;
52136;SDS011;69622;49.570;10.986;2023-08-07T00:15:53;4.00;;;0.30;;
52136;SDS011;69622;49.570;10.986;2023-08-07T00:18:55;0.50;;;0.20;;
52136;SDS011;69622;49.570;10.986;2023-08-07T00:21:57;1.63;;;0.30;;
52136;SDS011;69622;49.570;10.986;2023-08-07T00:24:59;1.33;;;0.30;;
52136;SDS011;69622;49.570;10.986;2023-08-07T00:28:00;2.38;;;0.30;;
52136;SDS011;69622;49.570;10.986;2023-08-07T00:31:02;2.08;;;0.20;;
52136;SDS011;69622;49.570;10.986;2023-08-07T00:34:03;0.55;;;0.20;;
52136;SDS011;69622;49.570;10.986;2023-08-07T00:37:05;1.95;;;0.30;;
52136;SDS011;69622;49.570;10.986;2023-08-07T00:40:07;1.85;;;0.25;;
52136;SDS011;69622;49.570;10.986;2023-08-07T00:43:09;5.22;;;0.40;;
52136;SDS011;69622;49.570;10.986;2023-08-07T00:46:10;1.75;;;0.22;;
52136;SDS011;69622;49.570;10.986;2023-08-07T00:49:12;1.45;;;0.40;;
52136;SDS011;69622;49.570;10.986;2023-08-07T00:52:14;0.52;;;0.30;;
52136;SDS011;69622;49.570;10.986;2023-08-07T00:55:20;2.60;;;0.38;;
52136;SDS011;69622;49.570;10.986;2023-08-07T00:58:21;0.70;;;0.30;;
52136;SDS011;69622;49.570;10.986;2023-08-07T01:01:23;4.90;;;0.45;;
52136;SDS011;69622;49.570;10.986;2023-08-07T01:04:25;2.35;;;0.35;;
52136;SDS011;69622;49.570;10.986;2023-08-07T01:07:27;1.38;;;0.40;;
52136;SDS011;69622;49.570;10.986;2023-08-07T01:10:47;1.20;;;0.40;;
52136;SDS011;69622;49.570;10.986;2023-08-07T01:17:09;1.80;;;0.50;;
52136;SDS011;69622;49.570;10.986;2023-08-07T01:20:13;0.60;;;0.32;;
52136;SDS011;69622;49.570;10.986;2023-08-07T01:23:15;1.92;;;0.50;;
52136;SDS011;69622;49.570;10.986;2023-08-07T01:26:17;4.00;;;0.60;;
52136;SDS011;69622;49.570;10.986;2023-08-07T01:29:22;2.97;;;0.50;;
52136;SDS011;69622;49.570;10.986;2023-08-07T01:32:40;1.35;;;0.45;;
52136;SDS011;69622;49.570;10.986;2023-08-07T01:35:53;3.03;;;0.40;;
52136;SDS011;69622;49.570;10.986;2023-08-07T01:38:57;0.75;;;0.30;;
52136;SDS011;69622;49.570;10.986;2023-08-07T01:42:00;0.98;;;0.45;;
52136;SDS011;69622;49.570;10.986;2023-08-07T01:45:04;0.80;;;0.38;;
52136;SDS011;69622;49.570;10.986;2023-08-07T01:48:06;0.90;;;0.40;;
52136;SDS011;69622;49.570;10.986;2023-08-07T01:51:08;1.48;;;0.57;;
52136;SDS011;69622;49.570;10.986;2023-08-07T01:54:09;2.50;;;0.50;;
52136;SDS011;69622;49.570;10.986;2023-08-07T01:57:11;2.42;;;0.63;;
52136;SDS011;69622;49.570;10.986;2023-08-07T02:00:13;1.95;;;0.70;;
52136;SDS011;69622;49.570;10.986;2023-08-07T02:03:14;0.60;;;0.43;;
52136;SDS011;69622;49.570;10.986;2023-08-07T02:06:16;2.58;;;0.93;;
52136;SDS011;69622;49.570;10.986;2023-08-07T02:09:18;2.33;;;0.60;;
52136;SDS011;69622;49.570;10.986;2023-08-07T02:12:19;1.50;;;0.40;;
52136;SDS011;69622;49.570;10.986;2023-08-07T02:15:21;1.52;;;0.32;;
52136;SDS011;69622;49.570;10.986;2023-08-07T02:18:22;1.75;;;0.50;;
52136;SDS011;69622;49.570;10.986;2023-08-07T02:21:24;2.53;;;0.60;;
52136;SDS011;69622;49.570;10.986;2023-08-07T02:24:25;2.90;;;0.60;;
52136;SDS011;69622;49.570;10.986;2023-08-07T02:27:26;3.40;;;0.50;;
52136;SDS011;69622;49.570;10.986;2023-08-07T02:30:28;2.72;;;0.55;;
52136;SDS011;69622;49.570;10.986;2023-08-07T02:33:29;4.32;;;0.60;;
52136;SDS011;69622;49.570;10.986;2023-08-07T02:36:31;1.13;;;0.40;;
52136;SDS011;69622;49.570;10.986;2023-08-07T02:39:33;4.32;;;0.60;;
52136;SDS011;69622;49.570;10.986;2023-08-07T02:42:34;1.20;;;0.57;;
52136;SDS011;69622;49.570;10.986;2023-08-07T02:45:36;1.88;;;0.73;;
52136;SDS011;69622;49.570;10.986;2023-08-07T02:48:37;0.80;;;0.50;;
52136;SDS011;69622;49.570;10.986;2023-08-07T02:51:40;2.38;;;0.70;;
52136;SDS011;69622;49.570;10.986;2023-08-07T02:54:41;1.88;;;0.77;;
52136;SDS011;69622;49.570;10.986;2023-08-07T02:57:43;5.05;;;0.95;;
52136;SDS011;69622;49.570;10.986;2023-08-07T03:00:44;2.65;;;0.73;;
52136;SDS011;69622;49.570;10.986;2023-08-07T03:03:46;2.00;;;0.93;;
52136;SDS011;69622;49.570;10.986;2023-08-07T03:06:47;1.15;;;0.68;;
52136;SDS011;69622;49.570;10.986;2023-08-07T03:09:49;1.98;;;0.70;;
52136;SDS011;69622;49.570;10.986;2023-08-07T03:12:50;1.08;;;0.85;;
52136;SDS011;69622;49.570;10.986;2023-08-07T03:15:58;5.40;;;0.98;;
52136;SDS011;69622;49.570;10.986;2023-08-07T03:19:03;3.58;;;0.80;;
52136;SDS011;69622;49.570;10.986;2023-08-07T03:22:05;7.28;;;1.05;;
52136;SDS011;69622;49.570;10.986;2023-08-07T03:25:06;3.80;;;1.02;;
52136;SDS011;69622;49.570;10.986;2023-08-07T03:28:08;1.38;;;1.00;;
52136;SDS011;69622;49.570;10.986;2023-08-07T03:31:10;3.95;;;1.25;;
52136;SDS011;69622;49.570;10.986;2023-08-07T03:34:11;5.30;;;1.15;;
52136;SDS011;69622;49.570;10.986;2023-08-07T03:37:13;1.98;;;1.27;;
52136;SDS011;69622;49.570;10.986;2023-08-07T03:40:14;8.05;;;1.50;;
52136;SDS011;69622;49.570;10.986;2023-08-07T03:43:16;2.42;;;1.27;;
52136;SDS011;69622;49.570;10.986;2023-08-07T03:46:17;5.20;;;1.58;;
52136;SDS011;69622;49.570;10.986;2023-08-07T03:49:19;2.83;;;1.45;;
52136;SDS011;69622;49.570;10.986;2023-08-07T03:52:20;4.43;;;1.60;;
52136;SDS011;69622;49.570;10.986;2023-08-07T03:55:22;5.70;;;1.50;;
52136;SDS011;69622;49.570;10.986;2023-08-07T03:58:23;5.30;;;1.38;;
52136;SDS011;69622;49.570;10.986;2023-08-07T04:01:25;4.20;;;1.80;;
52136;SDS011;69622;49.570;10.986;2023-08-07T04:04:26;6.72;;;1.90;;
52136;SDS011;69622;49.570;10.986;2023-08-07T04:07:28;3.95;;;1.77;;
52136;SDS011;69622;49.570;10.986;2023-08-07T04:10:32;5.93;;;1.90;;
52136;SDS011;69622;49.570;10.986;2023-08-07T04:13:35;1.88;;;1.73;;
52136;SDS011;69622;49.570;10.986;2023-08-07T04:16:37;4.28;;;2.00;;
52136;SDS011;69622;49.570;10.986;2023-08-07T04:19:38;2.15;;;1.48;;
52136;SDS011;69622;49.570;10.986;2023-08-07T04:22:40;7.22;;;1.65;;
52136;SDS011;69622;49.570;10.986;2023-08-07T04:25:41;7.22;;;2.72;;
52136;SDS011;69622;49.570;10.986;2023-08-07T04:28:43;4.43;;;2.00;;
52136;SDS011;69622;49.570;10.986;2023-08-07T04:31:44;4.05;;;1.80;;
52136;SDS011;69622;49.570;10.986;2023-08-07T04:34:46;3.83;;;1.83;;
52136;SDS011;69622;49.570;10.986;2023-08-07T04:37:47;3.85;;;2.05;;
52136;SDS011;69622;49.570;10.986;2023-08-07T04:40:49;4.05;;;2.03;;
52136;SDS011;69622;49.570;10.986;2023-08-07T04:43:51;5.65;;;2.17;;
52136;SDS011;69622;49.570;10.986;2023-08-07T04:46:53;10.05;;;2.13;;
52136;SDS011;69622;49.570;10.986;2023-08-07T04:49:55;2.83;;;1.95;;
52136;SDS011;69622;49.570;10.986;2023-08-07T04:52:56;6.85;;;2.50;;
52136;SDS011;69622;49.570;10.986;2023-08-07T04:56:02;3.03;;;2.35;;
52136;SDS011;69622;49.570;10.986;2023-08-07T04:59:04;6.13;;;2.33;;
52136;SDS011;69622;49.570;10.986;2023-08-07T05:02:05;4.72;;;2.40;;
52136;SDS011;69622;49.570;10.986;2023-08-07T05:05:07;11.05;;;2.92;;
52136;SDS011;69622;49.570;10.986;2023-08-07T05:08:11;9.55;;;2.53;;
52136;SDS011;69622;49.570;10.986;2023-08-07T05:11:13;4.25;;;2.72;;
52136;SDS011;69622;49.570;10.986;2023-08-07T05:14:14;5.47;;;2.38;;
52136;SDS011;69622;49.570;10.986;2023-08-07T05:17:16;5.68;;;2.35;;
52136;SDS011;69622;49.570;10.986;2023-08-07T05:20:17;5.35;;;2.25;;
52136;SDS011;69622;49.570;10.986;2023-08-07T05:23:19;6.13;;;2.55;;
52136;SDS011;69622;49.570;10.986;2023-08-07T05:26:21;9.05;;;3.00;;
52136;SDS011;69622;49.570;10.986;2023-08-07T05:29:22;6.15;;;2.50;;
52136;SDS011;69622;49.570;10.986;2023-08-07T05:32:24;10.10;;;3.00;;
52136;SDS011;69622;49.570;10.986;2023-08-07T05:35:25;6.45;;;2.47;;
52136;SDS011;69622;49.570;10.986;2023-08-07T05:38:27;4.93;;;2.47;;
52136;SDS011;69622;49.570;10.986;2023-08-07T05:41:28;4.40;;;2.40;;
52136;SDS011;69622;49.570;10.986;2023-08-07T05:44:32;4.63;;;2.28;;
52136;SDS011;69622;49.570;10.986;2023-08-07T05:47:34;6.85;;;2.63;;
52136;SDS011;69622;49.570;10.986;2023-08-07T05:50:35;7.93;;;3.10;;
52136;SDS011;69622;49.570;10.986;2023-08-07T05:53:37;8.85;;;2.85;;
52136;SDS011;69622;49.570;10.986;2023-08-07T05:56:38;11.18;;;4.68;;
52136;SDS011;69622;49.570;10.986;2023-08-07T05:59:40;7.53;;;2.65;;
52136;SDS011;69622;49.570;10.986;2023-08-07T06:02:41;4.80;;;2.60;;
52136;SDS011;69622;49.570;10.986;2023-08-07T06:05:43;4.75;;;2.33;;
52136;SDS011;69622;49.570;10.986;2023-08-07T06:08:44;4.78;;;2.47;;
52136;SDS011;69622;49.570;10.986;2023-08-07T06:11:45;7.05;;;2.47;;
52136;SDS011;69622;49.570;10.986;2023-08-07T06:14:47;8.00;;;2.80;;
52136;SDS011;69622;49.570;10.986;2023-08-07T06:17:48;6.70;;;2.20;;
52136;SDS011;69622;49.570;10.986;2023-08-07T06:20:52;5.15;;;2.30;;
52136;SDS011;69622;49.570;10.986;2023-08-07T06:23:54;10.07;;;2.75;;
52136;SDS011;69622;49.570;10.986;2023-08-07T06:26:55;4.20;;;2.80;;
52136;SDS011;69622;49.570;10.986;2023-08-07T06:29:57;3.97;;;2.15;;
52136;SDS011;69622;49.570;10.986;2023-08-07T06:32:58;5.18;;;2.35;;
52136;SDS011;69622;49.570;10.986;2023-08-07T06:36:00;4.05;;;2.35;;
52136;SDS011;69622;49.570;10.986;2023-08-07T06:39:03;4.13;;;3.15;;
52136;SDS011;69622;49.570;10.986;2023-08-07T06:42:05;7.90;;;2.38;;
52136;SDS011;69622;49.570;10.986;2023-08-07T06:45:07;4.50;;;2.50;;
52136;SDS011;69622;49.570;10.986;2023-08-07T06:48:08;6.22;;;2.92;;
52136;SDS011;69622;49.570;10.986;2023-08-07T06:51:10;4.97;;;2.60;;
52136;SDS011;69622;49.570;10.986;2023-08-07T06:54:11;3.60;;;2.70;;
52136;SDS011;69622;49.570;10.986;2023-08-07T06:57:13;6.47;;;2.60;;
52136;SDS011;69622;49.570;10.986;2023-08-07T07:00:15;7.03;;;2.15;;
52136;SDS011;69622;49.570;10.986;2023-08-07T07:03:17;9.63;;;2.83;;
52136;SDS011;69622;49.570;10.986;2023-08-07T07:06:19;6.05;;;2.53;;
52136;SDS011;69622;49.570;10.986;2023-08-07T07:09:21;5.85;;;2.33;;
52136;SDS011;69622;49.570;10.986;2023-08-07T07:12:23;9.18;;;2.63;;
52136;SDS011;69622;49.570;10.986;2023-08-07T07:15:24;6.75;;;2.70;;
52136;SDS011;69622;49.570;10.986;2023-08-07T07:18:26;3.38;;;2.35;;
52136;SDS011;69622;49.570;10.986;2023-08-07T07:21:28;12.43;;;3.08;;
52136;SDS011;69622;49.570;10.986;2023-08-07T07:24:29;6.47;;;2.58;;
52136;SDS011;69622;49.570;10.986;2023-08-07T07:27:30;6.68;;;2.90;;
52136;SDS011;69622;49.570;10.986;2023-08-07T07:30:32;6.53;;;3.08;;
52136;SDS011;69622;49.570;10.986;2023-08-07T07:33:33;5.53;;;2.75;;
52136;SDS011;69622;49.570;10.986;2023-08-07T07:36:39;4.22;;;2.20;;
52136;SDS011;69622;49.570;10.986;2023-08-07T07:39:41;5.72;;;2.40;;
52136;SDS011;69622;49.570;10.986;2023-08-07T07:42:43;6.18;;;2.85;;
52136;SDS011;69622;49.570;10.986;2023-08-07T07:45:44;7.60;;;3.17;;
52136;SDS011;69622;49.570;10.986;2023-08-07T07:48:46;5.30;;;2.80;;
52136;SDS011;69622;49.570;10.986;2023-08-07T07:51:47;7.82;;;2.90;;
52136;SDS011;69622;49.570;10.986;2023-08-07T07:54:50;11.48;;;3.22;;
52136;SDS011;69622;49.570;10.986;2023-08-07T07:57:52;11.25;;;2.97;;
52136;SDS011;69622;49.570;10.986;2023-08-07T08:00:53;4.95;;;2.88;;
52136;SDS011;69622;49.570;10.986;2023-08-07T08:03:55;8.63;;;2.70;;
52136;SDS011;69622;49.570;10.986;2023-08-07T08:06:57;5.65;;;3.03;;
52136;SDS011;69622;49.570;10.986;2023-08-07T08:09:58;11.10;;;5.05;;
52136;SDS011;69622;49.570;10.986;2023-08-07T08:13:00;6.50;;;3.10;;
52136;SDS011;69622;49.570;10.986;2023-08-07T08:16:02;6.60;;;3.20;;
52136;SDS011;69622;49.570;10.986;2023-08-07T08:19:03;7.15;;;2.78;;
52136;SDS011;69622;49.570;10.986;2023-08-07T08:22:05;9.48;;;3.60;;
52136;SDS011;69622;49.570;10.986;2023-08-07T08:25:07;5.70;;;3.13;;
52136;SDS011;69622;49.570;10.986;2023-08-07T08:28:09;7.85;;;2.95;;
52136;SDS011;69622;49.570;10.986;2023-08-07T08:31:10;10.38;;;3.22;;
52136;SDS011;69622;49.570;10.986;2023-08-07T08:34:12;9.48;;;4.30;;
52136;SDS011;69622;49.570;10.986;2023-08-07T08:37:13;5.60;;;3.55;;
52136;SDS011;69622;49.570;10.986;2023-08-07T08:40:15;9.82;;;3.40;;
52136;SDS011;69622;49.570;10.986;2023-08-07T08:43:18;6.18;;;3.42;;
52136;SDS011;69622;49.570;10.986;2023-08-07T08:46:21;5.45;;;3.05;;
52136;SDS011;69622;49.570;10.986;2023-08-07T08:49:30;12.93;;;3.40;;
52136;SDS011;69622;49.570;10.986;2023-08-07T08:52:40;9.35;;;3.15;;
52136;SDS011;69622;49.570;10.986;2023-08-07T08:55:48;6.07;;;2.95;;
52136;SDS011;69622;49.570;10.986;2023-08-07T08:58:50;6.15;;;3.53;;
52136;SDS011;69622;49.570;10.986;2023-08-07T09:01:52;5.68;;;3.40;;
52136;SDS011;69622;49.570;10.986;2023-08-07T09:04:54;4.28;;;2.60;;
52136;SDS011;69622;49.570;10.986;2023-08-07T09:07:55;9.25;;;3.13;;
52136;SDS011;69622;49.570;10.986;2023-08-07T09:10:58;8.48;;;3.35;;
52136;SDS011;69622;49.570;10.986;2023-08-07T09:13:59;7.18;;;3.17;;
52136;SDS011;69622;49.570;10.986;2023-08-07T09:17:03;4.97;;;2.40;;
52136;SDS011;69622;49.570;10.986;2023-08-07T09:20:06;7.78;;;2.92;;
52136;SDS011;69622;49.570;10.986;2023-08-07T09:23:14;7.90;;;3.05;;
52136;SDS011;69622;49.570;10.986;2023-08-07T09:26:21;6.78;;;3.35;;
52136;SDS011;69622;49.570;10.986;2023-08-07T09:29:25;3.65;;;2.90;;
52136;SDS011;69622;49.570;10.986;2023-08-07T09:32:28;8.93;;;2.72;;
52136;SDS011;69622;49.570;10.986;2023-08-07T09:35:30;8.60;;;2.78;;
52136;SDS011;69622;49.570;10.986;2023-08-07T09:38:33;6.35;;;2.63;;
52136;SDS011;69622;49.570;10.986;2023-08-07T09:41:34;6.93;;;2.70;;
52136;SDS011;69622;49.570;10.986;2023-08-07T09:44:36;5.60;;;2.60;;
52136;SDS011;69622;49.570;10.986;2023-08-07T09:47:38;4.40;;;2.90;;
52136;SDS011;69622;49.570;10.986;2023-08-07T09:50:40;4.72;;;2.85;;
52136;SDS011;69622;49.570;10.986;2023-08-07T09:53:41;6.95;;;2.67;;
52136;SDS011;69622;49.570;10.986;2023-08-07T09:56:43;5.70;;;2.63;;
52136;SDS011;69622;49.570;10.986;2023-08-07T09:59:48;4.75;;;2.72;;
52136;SDS011;69622;49.570;10.986;2023-08-07T10:02:51;3.63;;;2.30;;
52136;SDS011;69622;49.570;10.986;2023-08-07T10:05:53;3.22;;;2.28;;
52136;SDS011;69622;49.570;10.986;2023-08-07T10:08:55;3.53;;;2.50;;
52136;SDS011;69622;49.570;10.986;2023-08-07T10:11:58;6.57;;;2.20;;
52136;SDS011;69622;49.570;10.986;2023-08-07T10:15:00;5.35;;;2.28;;
52136;SDS011;69622;49.570;10.986;2023-08-07T10:18:02;5.07;;;2.67;;
52136;SDS011;69622;49.570;10.986;2023-08-07T10:21:05;6.13;;;2.35;;
52136;SDS011;69622;49.570;10.986;2023-08-07T10:24:08;4.37;;;2.50;;
52136;SDS011;69622;49.570;10.986;2023-08-07T10:27:11;6.45;;;2.40;;
52136;SDS011;69622;49.570;10.986;2023-08-07T10:30:16;4.10;;;2.40;;
52136;SDS011;69622;49.570;10.986;2023-08-07T10:33:21;4.88;;;2.70;;
52136;SDS011;69622;49.570;10.986;2023-08-07T10:36:23;8.27;;;3.35;;
52136;SDS011;69622;49.570;10.986;2023-08-07T10:39:33;6.75;;;2.50;;
52136;SDS011;69622;49.570;10.986;2023-08-07T10:45:53;4.35;;;2.30;;
52136;SDS011;69622;49.570;10.986;2023-08-07T10:48:55;9.70;;;2.72;;
52136;SDS011;69622;49.570;10.986;2023-08-07T10:52:11;4.13;;;2.40;;
52136;SDS011;69622;49.570;10.986;2023-08-07T10:55:15;5.55;;;2.45;;
52136;SDS011;69622;49.570;10.986;2023-08-07T10:58:32;3.38;;;2.30;;
52136;SDS011;69622;49.570;10.986;2023-08-07T11:04:39;6.47;;;2.33;;
52136;SDS011;69622;49.570;10.986;2023-08-07T11:07:41;7.93;;;2.67;;
52136;SDS011;69622;49.570;10.986;2023-08-07T11:10:44;5.18;;;2.47;;
52136;SDS011;69622;49.570;10.986;2023-08-07T11:13:46;6.53;;;2.17;;
52136;SDS011;69622;49.570;10.986;2023-08-07T11:16:48;4.95;;;2.70;;
52136;SDS011;69622;49.570;10.986;2023-08-07T11:19:49;5.55;;;2.72;;
52136;SDS011;69622;49.570;10.986;2023-08-07T11:22:51;3.45;;;1.90;;
52136;SDS011;69622;49.570;10.986;2023-08-07T11:25:53;6.63;;;2.40;;
52136;SDS011;69622;49.570;10.986;2023-08-07T11:28:55;5.50;;;2.75;;
52136;SDS011;69622;49.570;10.986;2023-08-07T11:31:58;7.15;;;2.13;;
52136;SDS011;69622;49.570;10.986;2023-08-07T11:34:59;3.05;;;2.15;;
52136;SDS011;69622;49.570;10.986;2023-08-07T11:38:04;4.57;;;2.40;;
52136;SDS011;69622;49.570;10.986;2023-08-07T11:41:06;2.80;;;1.95;;
52136;SDS011;69622;49.570;10.986;2023-08-07T11:44:08;3.65;;;2.22;;
52136;SDS011;69622;49.570;10.986;2023-08-07T11:47:10;3.70;;;2.28;;
52136;SDS011;69622;49.570;10.986;2023-08-07T11:50:11;6.82;;;2.67;;
52136;SDS011;69622;49.570;10.986;2023-08-07T11:53:13;4.60;;;1.95;;
52136;SDS011;69622;49.570;10.986;2023-08-07T11:56:15;5.32;;;2.30;;
52136;SDS011;69622;49.570;10.986;2023-08-07T11:59:16;6.57;;;2.28;;
52136;SDS011;69622;49.570;10.986;2023-08-07T12:02:25;4.85;;;1.92;;
52136;SDS011;69622;49.570;10.986;2023-08-07T12:05:27;5.60;;;2.08;;
52136;SDS011;69622;49.570;10.986;2023-08-07T12:08:32;6.35;;;1.83;;
52136;SDS011;69622;49.570;10.986;2023-08-07T12:11:38;3.80;;;1.77;;
52136;SDS011;69622;49.570;10.986;2023-08-07T12:14:40;2.78;;;2.00;;
52136;SDS011;69622;49.570;10.986;2023-08-07T12:17:41;6.47;;;1.73;;
52136;SDS011;69622;49.570;10.986;2023-08-07T12:20:43;2.90;;;1.90;;
52136;SDS011;69622;49.570;10.986;2023-08-07T12:23:44;4.93;;;2.65;;
52136;SDS011;69622;49.570;10.986;2023-08-07T12:26:48;4.13;;;1.73;;
52136;SDS011;69622;49.570;10.986;2023-08-07T12:29:50;2.53;;;1.77;;
52136;SDS011;69622;49.570;10.986;2023-08-07T12:32:51;3.92;;;1.80;;
52136;SDS011;69622;49.570;10.986;2023-08-07T12:35:53;2.83;;;1.67;;
52136;SDS011;69622;49.570;10.986;2023-08-07T12:38:55;4.50;;;1.50;;
52136;SDS011;69622;49.570;10.986;2023-08-07T12:41:56;3.55;;;1.58;;
52136;SDS011;69622;49.570;10.986;2023-08-07T12:45:02;2.50;;;1.80;;
52136;SDS011;69622;49.570;10.986;2023-08-07T12:48:04;2.50;;;1.35;;
52136;SDS011;69622;49.570;10.986;2023-08-07T12:51:05;3.13;;;1.58;;
52136;SDS011;69622;49.570;10.986;2023-08-07T12:54:07;3.63;;;1.77;;
52136;SDS011;69622;49.570;10.986;2023-08-07T12:57:08;3.88;;;1.80;;
52136;SDS011;69622;49.570;10.986;2023-08-07T13:00:10;4.13;;;1.70;;
52136;SDS011;69622;49.570;10.986;2023-08-07T13:03:15;3.33;;;2.03;;
52136;SDS011;69622;49.570;10.986;2023-08-07T13:06:17;2.40;;;1.58;;
52136;SDS011;69622;49.570;10.986;2023-08-07T13:09:18;3.05;;;1.63;;
52136;SDS011;69622;49.570;10.986;2023-08-07T13:12:20;3.58;;;1.85;;
52136;SDS011;69622;49.570;10.986;2023-08-07T13:15:21;3.40;;;1.45;;
52136;SDS011;69622;49.570;10.986;2023-08-07T13:18:24;1.95;;;1.48;;
52136;SDS011;69622;49.570;10.986;2023-08-07T13:21:25;4.18;;;2.00;;
52136;SDS011;69622;49.570;10.986;2023-08-07T13:24:27;3.85;;;1.58;;
52136;SDS011;69622;49.570;10.986;2023-08-07T13:27:29;2.25;;;1.77;;
52136;SDS011;69622;49.570;10.986;2023-08-07T13:30:31;4.05;;;1.90;;
52136;SDS011;69622;49.570;10.986;2023-08-07T13:33:37;4.47;;;2.58;;
52136;SDS011;69622;49.570;10.986;2023-08-07T13:36:39;3.13;;;1.63;;
52136;SDS011;69622;49.570;10.986;2023-08-07T13:39:40;2.40;;;1.20;;
52136;SDS011;69622;49.570;10.986;2023-08-07T13:42:42;4.53;;;1.63;;
52136;SDS011;69622;49.570;10.986;2023-08-07T13:45:44;1.85;;;1.73;;
52136;SDS011;69622;49.570;10.986;2023-08-07T13:48:46;5.43;;;1.73;;
52136;SDS011;69622;49.570;10.986;2023-08-07T13:51:47;6.20;;;1.80;;
52136;SDS011;69622;49.570;10.986;2023-08-07T13:54:50;4.00;;;1.83;;
52136;SDS011;69622;49.570;10.986;2023-08-07T13:57:51;3.28;;;1.50;;
52136;SDS011;69622;49.570;10.986;2023-08-07T14:00:53;3.65;;;1.70;;
52136;SDS011;69622;49.570;10.986;2023-08-07T14:03:54;3.88;;;2.10;;
52136;SDS011;69622;49.570;10.986;2023-08-07T14:06:57;3.42;;;1.75;;
52136;SDS011;69622;49.570;10.986;2023-08-07T14:09:59;4.55;;;2.15;;
52136;SDS011;69622;49.570;10.986;2023-08-07T14:13:00;3.90;;;1.42;;
52136;SDS011;69622;49.570;10.986;2023-08-07T14:16:01;3.42;;;1.42;;
52136;SDS011;69622;49.570;10.986;2023-08-07T14:19:03;4.45;;;1.70;;
52136;SDS011;69622;49.570;10.986;2023-08-07T14:22:05;2.50;;;1.90;;
52136;SDS011;69622;49.570;10.986;2023-08-07T14:25:06;3.97;;;1.73;;
52136;SDS011;69622;49.570;10.986;2023-08-07T14:28:08;4.93;;;1.92;;
52136;SDS011;69622;49.570;10.986;2023-08-07T14:31:09;4.78;;;2.00;;
52136;SDS011;69622;49.570;10.986;2023-08-07T14:34:11;3.60;;;2.03;;
52136;SDS011;69622;49.570;10.986;2023-08-07T14:37:13;5.50;;;1.60;;
52136;SDS011;69622;49.570;10.986;2023-08-07T14:40:14;3.85;;;2.22;;
52136;SDS011;69622;49.570;10.986;2023-08-07T14:43:15;4.85;;;2.03;;
52136;SDS011;69622;49.570;10.986;2023-08-07T14:46:17;7.55;;;2.95;;
52136;SDS011;69622;49.570;10.986;2023-08-07T14:49:21;4.15;;;1.70;;
52136;SDS011;69622;49.570;10.986;2023-08-07T14:52:23;7.13;;;2.28;;
52136;SDS011;69622;49.570;10.986;2023-08-07T14:55:24;4.50;;;2.25;;
52136;SDS011;69622;49.570;10.986;2023-08-07T14:58:26;9.18;;;2.45;;
52136;SDS011;69622;49.570;10.986;2023-08-07T15:01:27;4.93;;;1.67;;
52136;SDS011;69622;49.570;10.986;2023-08-07T15:04:29;2.58;;;2.22;;
52136;SDS011;69622;49.570;10.986;2023-08-07T15:07:30;3.83;;;1.92;;
52136;SDS011;69622;49.570;10.986;2023-08-07T15:10:32;3.05;;;1.92;;
52136;SDS011;69622;49.570;10.986;2023-08-07T15:13:34;4.03;;;1.77;;
52136;SDS011;69622;49.570;10.986;2023-08-07T15:16:35;8.30;;;2.00;;
52136;SDS011;69622;49.570;10.986;2023-08-07T15:19:38;4.20;;;2.08;;
52136;SDS011;69622;49.570;10.986;2023-08-07T15:22:40;4.95;;;2.08;;
52136;SDS011;69622;49.570;10.986;2023-08-07T15:25:41;4.15;;;1.90;;
52136;SDS011;69622;49.570;10.986;2023-08-07T15:28:43;3.60;;;2.05;;
52136;SDS011;69622;49.570;10.986;2023-08-07T15:31:46;5.30;;;2.17;;
52136;SDS011;69622;49.570;10.986;2023-08-07T15:34:48;5.32;;;2.00;;
52136;SDS011;69622;49.570;10.986;2023-08-07T15:37:50;6.63;;;2.03;;
52136;SDS011;69622;49.570;10.986;2023-08-07T15:40:51;4.15;;;2.28;;
52136;SDS011;69622;49.570;10.986;2023-08-07T15:43:53;4.75;;;2.28;;
52136;SDS011;69622;49.570;10.986;2023-08-07T15:46:55;4.78;;;2.20;;
52136;SDS011;69622;49.570;10.986;2023-08-07T15:49:57;4.90;;;2.10;;
52136;SDS011;69622;49.570;10.986;2023-08-07T15:52:58;3.08;;;1.70;;
52136;SDS011;69622;49.570;10.986;2023-08-07T15:56:00;6.25;;;1.90;;
52136;SDS011;69622;49.570;10.986;2023-08-07T15:59:01;6.88;;;1.90;;
52136;SDS011;69622;49.570;10.986;2023-08-07T16:02:03;7.00;;;3.05;;
52136;SDS011;69622;49.570;10.986;2023-08-07T16:05:06;4.55;;;2.47;;
52136;SDS011;69622;49.570;10.986;2023-08-07T16:08:08;4.70;;;1.63;;
52136;SDS011;69622;49.570;10.986;2023-08-07T16:11:11;4.45;;;2.00;;
52136;SDS011;69622;49.570;10.986;2023-08-07T16:14:12;4.32;;;2.25;;
52136;SDS011;69622;49.570;10.986;2023-08-07T16:17:14;4.75;;;1.77;;
52136;SDS011;69622;49.570;10.986;2023-08-07T16:20:17;6.75;;;1.88;;
52136;SDS011;69622;49.570;10.986;2023-08-07T16:23:19;3.47;;;2.03;;
52136;SDS011;69622;49.570;10.986;2023-08-07T16:26:21;3.90;;;1.65;;
52136;SDS011;69622;49.570;10.986;2023-08-07T16:29:22;7.68;;;2.00;;
52136;SDS011;69622;49.570;10.986;2023-08-07T16:32:24;3.80;;;1.88;;
52136;SDS011;69622;49.570;10.986;2023-08-07T16:35:25;6.35;;;2.25;;
52136;SDS011;69622;49.570;10.986;2023-08-07T16:38:27;4.10;;;2.05;;
52136;SDS011;69622;49.570;10.986;2023-08-07T16:41:28;4.50;;;1.90;;
52136;SDS011;69622;49.570;10.986;2023-08-07T16:44:30;3.83;;;1.85;;
52136;SDS011;69622;49.570;10.986;2023-08-07T16:47:32;7.05;;;2.33;;
52136;SDS011;69622;49.570;10.986;2023-08-07T16:50:33;3.15;;;1.67;;
52136;SDS011;69622;49.570;10.986;2023-08-07T16:53:35;4.63;;;1.58;;
52136;SDS011;69622;49.570;10.986;2023-08-07T16:56:36;4.70;;;1.40;;
52136;SDS011;69622;49.570;10.986;2023-08-07T16:59:37;4.97;;;1.67;;
52136;SDS011;69622;49.570;10.986;2023-08-07T17:02:39;3.33;;;1.58;;
52136;SDS011;69622;49.570;10.986;2023-08-07T17:05:41;3.40;;;1.58;;
52136;SDS011;69622;49.570;10.986;2023-08-07T17:08:42;3.05;;;1.48;;
52136;SDS011;69622;49.570;10.986;2023-08-07T17:11:47;2.90;;;1.90;;
52136;SDS011;69622;49.570;10.986;2023-08-07T17:14:48;5.07;;;2.00;;
52136;SDS011;69622;49.570;10.986;2023-08-07T17:17:50;2.55;;;1.85;;
52136;SDS011;69622;49.570;10.986;2023-08-07T17:20:51;8.23;;;1.92;;
52136;SDS011;69622;49.570;10.986;2023-08-07T17:23:53;5.13;;;1.60;;
52136;SDS011;69622;49.570;10.986;2023-08-07T17:26:55;6.25;;;2.35;;
52136;SDS011;69622;49.570;10.986;2023-08-07T17:29:57;3.38;;;1.92;;
52136;SDS011;69622;49.570;10.986;2023-08-07T17:32:59;3.47;;;1.90;;
52136;SDS011;69622;49.570;10.986;2023-08-07T17:36:01;3.85;;;1.98;;
52136;SDS011;69622;49.570;10.986;2023-08-07T17:39:03;3.75;;;2.03;;
52136;SDS011;69622;49.570;10.986;2023-08-07T17:42:04;3.85;;;1.67;;
52136;SDS011;69622;49.570;10.986;2023-08-07T17:45:06;4.82;;;2.08;;
52136;SDS011;69622;49.570;10.986;2023-08-07T17:48:08;6.07;;;2.13;;
52136;SDS011;69622;49.570;10.986;2023-08-07T17:51:10;3.50;;;2.00;;
52136;SDS011;69622;49.570;10.986;2023-08-07T17:54:13;3.15;;;1.50;;
52136;SDS011;69622;49.570;10.986;2023-08-07T17:57:14;3.00;;;1.77;;
52136;SDS011;69622;49.570;10.986;2023-08-07T18:00:16;5.93;;;1.98;;
52136;SDS011;69622;49.570;10.986;2023-08-07T18:03:18;4.78;;;1.83;;
52136;SDS011;69622;49.570;10.986;2023-08-07T18:06:19;4.57;;;1.70;;
52136;SDS011;69622;49.570;10.986;2023-08-07T18:09:21;3.28;;;1.70;;